Romoe Maersk — OXLC2 — position and weather

sailwx.info

Track history (hours):
 
Tides and Currents Weather Stations Pressure Air Temp Water Temp Dewpoint Dewpoint Depression Visibility Wind Speed Wind Dir Waves Ship Positions

Romoe Maersk

Last reported at 2016-Sep-09 17:29 UTC. Time now 2016-Sep-27 08:44 UTC.
Position S 27°10' E 153°57'.
Warning: this ship's position is 17 days out of date.

Length 171 m; draft 7.6 m.

Type: Ship. MMSI: 220209000.

Date/timePositionNaut miles runAvg speedWind from/ knotsBaromVisibWave heightAir tempDewpointWater temp
2016-Sep-09 17:29S 27°10' E 153°57'10 7.6
2016-Sep-09 16:13S 27°02' E 153°50'5 7.6
2016-Sep-09 15:32S 26°58' E 153°47'8 7.7
2016-Sep-09 14:31S 26°52' E 153°42'6 6.6
2016-Sep-09 13:34S 26°48' E 153°36'6 6.3
2016-Sep-09 12:33S 26°46' E 153°29'12 5.8
2016-Sep-09 10:28S 26°42' E 153°17'6 5.9
2016-Sep-09 09:29S 26°45' E 153°11'1111.5
2016-Sep-09 08:33S 26°56' E 153°12'1313.3
2016-Sep-09 07:34S 27°07' E 153°20'1211.6
2016-Sep-09 06:34S 27°17' E 153°14'10 9.9
2016-Sep-09 05:34S 27°25' E 153°08'0 0.1
2016-Sep-09 04:31S 27°25' E 153°08'0 0.0
2016-Sep-09 03:31S 27°25' E 153°08'0 0.0
2016-Sep-09 02:31S 27°25' E 153°08'0 0.0
2016-Sep-09 01:31S 27°25' E 153°08'0 0.0
2016-Sep-09 00:31S 27°25' E 153°08'0 0.0
2016-Sep-08 23:31S 27°25' E 153°08'0 0.0
2016-Sep-08 22:28S 27°25' E 153°08'0 0.0
2016-Sep-08 21:31S 27°25' E 153°08'0 0.0
2016-Sep-08 20:31S 27°25' E 153°08'0 0.0
2016-Sep-08 19:31S 27°25' E 153°08'0 0.0
2016-Sep-08 18:31S 27°25' E 153°08'0 0.0
2016-Sep-08 17:31S 27°25' E 153°08'0 0.0
2016-Sep-08 16:31S 27°25' E 153°08'0 0.0
2016-Sep-08 15:31S 27°25' E 153°08'0 0.0
2016-Sep-08 14:31S 27°25' E 153°08'0 0.0
2016-Sep-08 13:31S 27°25' E 153°08'0 0.0
2016-Sep-08 12:31S 27°25' E 153°08'0 0.0
2016-Sep-08 11:32S 27°25' E 153°08'0 0.0
2016-Sep-08 10:32S 27°25' E 153°08'0 0.0
2016-Sep-08 09:32S 27°25' E 153°08'2 2.0
2016-Sep-08 08:33S 27°24' E 153°09'1 0.0
2016-Sep-07 09:28S 27°23' E 153°10'4 4.2
2016-Sep-07 08:33S 27°20' E 153°12'1111.2
2016-Sep-07 07:33S 27°12' E 153°20'1010.0
2016-Sep-07 06:33S 27°03' E 153°16'20 9.7
2016-Sep-07 04:32S 26°43' E 153°11'  
Track history (hours):
 
Tides and Currents Weather Stations Pressure Air Temp Water Temp Dewpoint Dewpoint Depression Visibility Wind Speed Wind Dir Waves Ship Positions

Romoe Maersk

Last reported at 2016-Sep-09 17:29 UTC. Time now 2016-Sep-27 08:44 UTC.
Position S 27°10' E 153°57'.
Warning: this ship's position is 17 days out of date.

Length 171 m; draft 7.6 m.

Type: Ship. MMSI: 220209000.

Date/timePositionNaut miles runAvg speedWind from/ knotsBaromVisibWave heightAir tempDewpointWater temp
2016-Sep-09 17:29S 27°10' E 153°57'10 7.6
2016-Sep-09 16:13S 27°02' E 153°50'5 7.6
2016-Sep-09 15:32S 26°58' E 153°47'8 7.7
2016-Sep-09 14:31S 26°52' E 153°42'6 6.6
2016-Sep-09 13:34S 26°48' E 153°36'6 6.3
2016-Sep-09 12:33S 26°46' E 153°29'12 5.8
2016-Sep-09 10:28S 26°42' E 153°17'6 5.9
2016-Sep-09 09:29S 26°45' E 153°11'1111.5
2016-Sep-09 08:33S 26°56' E 153°12'1313.3
2016-Sep-09 07:34S 27°07' E 153°20'1211.6
2016-Sep-09 06:34S 27°17' E 153°14'10 9.9
2016-Sep-09 05:34S 27°25' E 153°08'0 0.1
2016-Sep-09 04:31S 27°25' E 153°08'0 0.0
2016-Sep-09 03:31S 27°25' E 153°08'0 0.0
2016-Sep-09 02:31S 27°25' E 153°08'0 0.0
2016-Sep-09 01:31S 27°25' E 153°08'0 0.0
2016-Sep-09 00:31S 27°25' E 153°08'0 0.0
2016-Sep-08 23:31S 27°25' E 153°08'0 0.0
2016-Sep-08 22:28S 27°25' E 153°08'0 0.0
2016-Sep-08 21:31S 27°25' E 153°08'0 0.0
2016-Sep-08 20:31S 27°25' E 153°08'0 0.0
2016-Sep-08 19:31S 27°25' E 153°08'0 0.0
2016-Sep-08 18:31S 27°25' E 153°08'0 0.0
2016-Sep-08 17:31S 27°25' E 153°08'0 0.0
2016-Sep-08 16:31S 27°25' E 153°08'0 0.0
2016-Sep-08 15:31S 27°25' E 153°08'0 0.0
2016-Sep-08 14:31S 27°25' E 153°08'0 0.0
2016-Sep-08 13:31S 27°25' E 153°08'0 0.0
2016-Sep-08 12:31S 27°25' E 153°08'0 0.0
2016-Sep-08 11:32S 27°25' E 153°08'0 0.0
2016-Sep-08 10:32S 27°25' E 153°08'0 0.0
2016-Sep-08 09:32S 27°25' E 153°08'2 2.0
2016-Sep-08 08:33S 27°24' E 153°09'1 0.0
2016-Sep-07 09:28S 27°23' E 153°10'4 4.2
2016-Sep-07 08:33S 27°20' E 153°12'1111.2
2016-Sep-07 07:33S 27°12' E 153°20'1010.0
2016-Sep-07 06:33S 27°03' E 153°16'20 9.7
2016-Sep-07 04:32S 26°43' E 153°11'  

Dump ship's entire track history